createdAt,value
2022-08-25T00:00:22.817Z,27.18
2022-08-25T00:02:56.086Z,27.15
2022-08-25T00:05:29.111Z,27.13
2022-08-25T00:07:58.299Z,27.11
2022-08-25T00:10:26.967Z,27.16
2022-08-25T00:12:55.577Z,27.13
2022-08-25T00:15:25.359Z,27.13
2022-08-25T00:17:54.892Z,27.15
2022-08-25T00:20:25.818Z,27.17
2022-08-25T00:22:56.369Z,27.12
2022-08-25T00:25:26.099Z,27.12
2022-08-25T00:27:54.958Z,27.11
2022-08-25T00:30:23.375Z,27.08
2022-08-25T00:32:55.263Z,27.06
2022-08-25T00:35:27.282Z,27.04
2022-08-25T00:37:56.708Z,26.78
2022-08-25T00:40:27.330Z,26.86
2022-08-25T00:42:56.127Z,26.95
2022-08-25T00:45:26.099Z,26.95
2022-08-25T00:47:54.578Z,26.93
2022-08-25T00:50:28.445Z,26.95
2022-08-25T00:53:00.244Z,26.92
2022-08-25T00:55:39.477Z,26.96
2022-08-25T00:58:22.186Z,26.96
2022-08-25T01:00:56.141Z,26.92
2022-08-25T01:03:36.080Z,26.95
2022-08-25T01:06:07.641Z,26.98
2022-08-25T01:08:35.908Z,26.93
2022-08-25T01:11:10.780Z,26.98
2022-08-25T01:13:47.468Z,26.95
2022-08-25T01:16:17.874Z,26.96
2022-08-25T01:18:54.051Z,26.95
2022-08-25T01:21:25.450Z,26.94
2022-08-25T01:23:55.745Z,26.65
2022-08-25T01:26:35.405Z,26.83
2022-08-25T01:29:21.501Z,26.86
2022-08-25T01:31:56.884Z,26.85
2022-08-25T01:34:32.269Z,26.88
2022-08-25T01:37:02.448Z,26.86
2022-08-25T01:39:37.044Z,26.87
2022-08-25T01:42:11.352Z,26.88
2022-08-25T01:44:45.156Z,26.86
2022-08-25T01:47:16.260Z,26.84
2022-08-25T01:49:46.099Z,26.82
2022-08-25T01:52:33.700Z,26.83
2022-08-25T01:55:01.915Z,26.77
2022-08-25T01:57:32.421Z,26.80
2022-08-25T02:00:01.776Z,26.77
2022-08-25T02:02:42.606Z,26.76
2022-08-25T02:05:20.332Z,26.74
2022-08-25T02:07:52.115Z,26.73
2022-08-25T02:10:20.357Z,26.72
2022-08-25T02:12:48.677Z,26.72
2022-08-25T02:15:17.911Z,26.68
2022-08-25T02:17:46.433Z,26.69
2022-08-25T02:20:15.621Z,26.65
2022-08-25T02:22:45.057Z,26.62
2022-08-25T02:25:25.238Z,26.31
2022-08-25T02:27:53.363Z,26.45
2022-08-25T02:30:21.671Z,26.48
2022-08-25T02:32:49.791Z,26.52
2022-08-25T02:35:19.410Z,26.51
2022-08-25T02:37:50.248Z,26.49
2022-08-25T02:40:21.474Z,26.47
2022-08-25T02:42:51.753Z,26.45
2022-08-25T02:45:19.794Z,26.43
2022-08-25T02:47:50.341Z,26.42
2022-08-25T02:50:18.594Z,26.38
2022-08-25T02:52:50.809Z,26.41
2022-08-25T02:55:19.730Z,26.14
2022-08-25T02:57:48.564Z,26.24
2022-08-25T03:00:17.712Z,26.25
2022-08-25T03:02:48.074Z,26.22
2022-08-25T03:05:17.545Z,26.13
2022-08-25T03:07:45.639Z,26.09
2022-08-25T03:10:19.165Z,26.03
2022-08-25T03:12:48.315Z,25.90
2022-08-25T03:15:18.171Z,25.83
2022-08-25T03:17:50.631Z,25.76
2022-08-25T03:20:20.672Z,25.68
2022-08-25T03:22:50.722Z,25.56
2022-08-25T03:25:38.285Z,25.46
2022-08-25T03:28:08.798Z,25.35
2022-08-25T03:30:37.347Z,25.29
2022-08-25T03:33:05.726Z,25.21
2022-08-25T03:35:34.494Z,25.18
2022-08-25T03:38:03.016Z,25.14
2022-08-25T03:40:34.196Z,25.15
2022-08-25T03:43:04.175Z,25.10
2022-08-25T03:45:32.377Z,25.09
2022-08-25T03:48:00.251Z,25.09
2022-08-25T03:50:28.443Z,25.10
2022-08-25T03:52:57.941Z,25.12
2022-08-25T03:55:28.346Z,25.19
2022-08-25T03:57:58.403Z,25.20
2022-08-25T04:00:27.575Z,25.20
2022-08-25T04:02:55.827Z,25.25
2022-08-25T04:05:26.782Z,25.28
2022-08-25T04:07:56.153Z,25.27
2022-08-25T04:10:24.944Z,25.31
2022-08-25T04:12:53.043Z,25.27
2022-08-25T04:15:21.137Z,25.31
2022-08-25T04:17:51.135Z,25.30
2022-08-25T04:20:21.066Z,25.18
2022-08-25T04:22:49.838Z,25.12
2022-08-25T04:25:18.576Z,25.07
2022-08-25T04:27:47.751Z,24.96
2022-08-25T04:30:16.382Z,24.89
2022-08-25T04:32:46.085Z,24.85
2022-08-25T04:35:15.094Z,24.89
2022-08-25T04:37:43.614Z,24.91
2022-08-25T04:40:12.099Z,24.96
2022-08-25T04:42:40.344Z,24.99
2022-08-25T04:45:09.051Z,25.03
2022-08-25T04:47:39.767Z,25.06
2022-08-25T04:50:10.268Z,25.07
2022-08-25T04:52:38.549Z,25.08
2022-08-25T04:55:09.929Z,25.07
2022-08-25T04:57:38.093Z,24.87
2022-08-25T05:00:07.701Z,24.98
2022-08-25T05:02:36.580Z,25.04
2022-08-25T05:05:06.896Z,25.07
2022-08-25T05:07:35.916Z,24.86
2022-08-25T05:10:04.869Z,25.04
2022-08-25T05:12:33.666Z,25.11
2022-08-25T05:15:26.624Z,25.19
2022-08-25T05:17:56.106Z,25.21
2022-08-25T05:20:26.984Z,25.24
2022-08-25T05:22:55.439Z,25.31
2022-08-25T05:25:23.553Z,25.30
2022-08-25T05:27:52.601Z,25.33
2022-08-25T05:30:21.512Z,25.39
2022-08-25T05:32:50.604Z,25.37
2022-08-25T05:35:21.341Z,25.44
2022-08-25T05:37:51.366Z,25.44
2022-08-25T05:40:19.577Z,25.48
2022-08-25T05:42:48.903Z,25.47
2022-08-25T05:45:20.381Z,25.47
2022-08-25T05:47:49.411Z,25.52
2022-08-25T05:50:18.727Z,25.55
2022-08-25T05:52:47.277Z,25.53
2022-08-25T05:55:17.149Z,25.54
2022-08-25T05:57:45.542Z,25.54
2022-08-25T06:00:14.447Z,25.52
2022-08-25T06:02:46.641Z,25.52
2022-08-25T06:05:22.452Z,25.57
2022-08-25T06:07:52.979Z,25.59
2022-08-25T06:10:22.691Z,25.61
2022-08-25T06:12:51.938Z,25.62
2022-08-25T06:15:24.567Z,25.45
2022-08-25T06:18:00.874Z,25.58
2022-08-25T06:20:32.185Z,25.70
2022-08-25T06:23:20.627Z,25.76
2022-08-25T06:26:20.868Z,25.85
2022-08-25T06:28:51.456Z,25.87
2022-08-25T06:31:22.726Z,25.90
2022-08-25T06:33:52.557Z,25.95
2022-08-25T06:36:21.926Z,26.09
2022-08-25T06:38:50.535Z,26.17
2022-08-25T06:41:18.845Z,26.26
2022-08-25T06:43:51.815Z,26.32
2022-08-25T06:46:28.852Z,26.46
2022-08-25T06:49:08.153Z,26.53
2022-08-25T06:51:36.493Z,26.58
2022-08-25T06:54:06.829Z,26.69
2022-08-25T06:56:36.481Z,26.77
2022-08-25T06:59:08.154Z,26.84
2022-08-25T07:01:39.161Z,26.89
2022-08-25T07:04:12.896Z,26.94
2022-08-25T07:06:42.054Z,27.01
2022-08-25T07:09:13.041Z,27.13
2022-08-25T07:11:42.617Z,27.18
2022-08-25T07:14:13.623Z,27.27
2022-08-25T07:16:48.588Z,27.36
2022-08-25T07:19:21.264Z,27.42
2022-08-25T07:21:53.191Z,27.54
2022-08-25T07:24:22.828Z,27.60
2022-08-25T07:26:51.788Z,27.70
2022-08-25T07:29:32.973Z,27.80
2022-08-25T07:32:02.746Z,27.87
2022-08-25T07:34:52.269Z,27.94
2022-08-25T07:37:47.659Z,27.99
2022-08-25T07:40:24.183Z,28.08
2022-08-25T07:42:55.563Z,27.94
2022-08-25T07:45:30.582Z,28.13
2022-08-25T07:48:09.266Z,28.25
2022-08-25T07:50:42.691Z,28.41
2022-08-25T07:53:15.035Z,28.49
2022-08-25T07:55:45.058Z,28.56
2022-08-25T07:58:16.928Z,28.66
2022-08-25T08:00:50.723Z,28.76
2022-08-25T08:03:42.088Z,28.80
2022-08-25T08:06:17.064Z,28.89
2022-08-25T08:08:49.357Z,28.90
2022-08-25T08:11:41.471Z,29.04
2022-08-25T08:14:13.746Z,29.10
2022-08-25T08:16:45.696Z,29.22
2022-08-25T08:19:13.646Z,29.31
2022-08-25T08:21:44.572Z,29.40
2022-08-25T08:24:31.231Z,29.47
2022-08-25T08:27:03.840Z,29.56
2022-08-25T08:29:32.575Z,29.66
2022-08-25T08:32:00.696Z,29.73
2022-08-25T08:34:29.422Z,29.82
2022-08-25T08:36:58.839Z,29.89
2022-08-25T08:39:29.054Z,29.96
2022-08-25T08:42:18.209Z,30.04
2022-08-25T08:44:46.121Z,30.05
2022-08-25T08:47:19.905Z,30.18
2022-08-25T08:50:28.067Z,30.28
2022-08-25T08:53:12.135Z,30.35
2022-08-25T08:55:52.459Z,30.42
2022-08-25T08:59:06.300Z,30.47
2022-08-25T09:01:45.753Z,30.56
2022-08-25T09:04:51.865Z,30.57
2022-08-25T09:07:32.722Z,30.63
2022-08-25T09:10:02.696Z,30.67
2022-08-25T09:13:15.314Z,30.78
2022-08-25T09:16:34.125Z,30.82
2022-08-25T09:19:36.146Z,30.88
2022-08-25T09:22:35.089Z,30.93
2022-08-25T09:28:55.675Z,30.99
2022-08-25T09:32:06.923Z,31.03
2022-08-25T09:34:37.015Z,31.06
2022-08-25T09:37:04.936Z,31.15
2022-08-25T09:39:32.906Z,31.21
2022-08-25T09:42:01.072Z,31.20
2022-08-25T09:44:45.791Z,31.36
2022-08-25T09:47:28.019Z,31.42
2022-08-25T09:50:00.841Z,31.26
2022-08-25T09:52:29.808Z,31.42
2022-08-25T09:55:08.238Z,31.56
2022-08-25T09:57:45.491Z,31.59
2022-08-25T10:00:29.673Z,31.66
2022-08-25T10:03:24.769Z,31.70
2022-08-25T10:05:58.895Z,31.74
2022-08-25T10:08:46.086Z,31.83
2022-08-25T10:11:49.835Z,31.90
2022-08-25T10:14:32.858Z,31.95
2022-08-25T10:17:30.075Z,31.98
2022-08-25T10:20:10.553Z,32.03
2022-08-25T10:22:41.323Z,32.03
2022-08-25T10:25:14.420Z,32.10
2022-08-25T10:28:04.436Z,32.17
2022-08-25T10:30:45.502Z,32.03
2022-08-25T10:33:45.798Z,32.22
2022-08-25T10:36:40.045Z,32.33
2022-08-25T10:39:40.720Z,32.39
2022-08-25T10:42:42.717Z,32.44
2022-08-25T10:45:45.058Z,32.47
2022-08-25T10:48:39.185Z,32.51
2022-08-25T10:51:38.132Z,32.57
2022-08-25T10:54:18.985Z,32.61
2022-08-25T10:57:25.729Z,32.67
2022-08-25T11:00:31.450Z,32.72
2022-08-25T11:03:44.960Z,32.77
2022-08-25T11:06:26.708Z,32.76
2022-08-25T11:09:01.253Z,32.81
2022-08-25T11:11:43.423Z,32.88
2022-08-25T11:15:00.081Z,32.89
2022-08-25T11:17:41.963Z,32.91
2022-08-25T11:20:26.901Z,32.88
2022-08-25T11:23:20.394Z,32.87
2022-08-25T11:25:56.349Z,32.85
2022-08-25T11:29:13.357Z,32.88
2022-08-25T11:31:53.653Z,32.95
2022-08-25T11:34:23.528Z,33.00
2022-08-25T11:36:55.393Z,33.05
2022-08-25T11:40:12.194Z,33.10
2022-08-25T11:43:12.994Z,33.13
2022-08-25T11:45:47.353Z,33.17
2022-08-25T11:48:45.312Z,33.22
2022-08-25T11:51:47.762Z,33.25
2022-08-25T11:54:26.471Z,33.32
2022-08-25T11:57:10.645Z,33.35
2022-08-25T11:59:53.543Z,33.39
2022-08-25T12:02:42.899Z,33.41
2022-08-25T12:05:22.431Z,33.42
2022-08-25T12:08:13.564Z,33.42
2022-08-25T12:11:11.439Z,33.42
2022-08-25T12:13:47.785Z,33.42
2022-08-25T12:16:35.725Z,33.47
2022-08-25T12:19:23.039Z,33.49
2022-08-25T12:21:53.110Z,33.50
2022-08-25T12:24:47.523Z,33.53
2022-08-25T12:27:51.900Z,33.50
2022-08-25T12:30:30.839Z,33.53
2022-08-25T12:33:28.352Z,33.55
2022-08-25T12:36:05.435Z,33.57
2022-08-25T12:38:52.965Z,33.63
2022-08-25T12:41:31.057Z,33.68
2022-08-25T12:44:47.920Z,33.69
2022-08-25T12:47:25.114Z,33.75
2022-08-25T12:50:41.177Z,33.78
2022-08-25T12:53:42.931Z,33.83
2022-08-25T12:56:42.377Z,33.83
2022-08-25T12:59:21.857Z,33.83
2022-08-25T13:02:20.962Z,33.88
2022-08-25T13:05:22.636Z,33.88
2022-08-25T13:08:23.303Z,33.88
2022-08-25T13:11:36.853Z,33.96
2022-08-25T13:14:43.887Z,33.99
2022-08-25T13:17:48.475Z,34.03
2022-08-25T13:20:30.873Z,34.09
2022-08-25T13:23:01.256Z,34.16
2022-08-25T13:25:34.944Z,34.25
2022-08-25T13:28:10.818Z,34.35
2022-08-25T13:30:41.623Z,34.42
2022-08-25T13:33:23.104Z,34.47
2022-08-25T13:36:15.340Z,34.38
2022-08-25T13:38:46.884Z,34.45
2022-08-25T13:41:28.654Z,34.46
2022-08-25T13:44:01.852Z,34.49
2022-08-25T13:46:31.750Z,34.49
2022-08-25T13:49:09.925Z,34.58
2022-08-25T13:51:53.149Z,34.66
2022-08-25T13:54:41.112Z,34.68
2022-08-25T13:57:24.199Z,34.71
2022-08-25T14:00:01.597Z,34.73
2022-08-25T14:02:53.476Z,34.75
2022-08-25T14:05:43.140Z,34.79
2022-08-25T14:08:35.733Z,34.80
2022-08-25T14:11:15.693Z,34.82
2022-08-25T14:13:45.639Z,34.81
2022-08-25T14:16:21.388Z,34.87
2022-08-25T14:18:59.427Z,34.92
2022-08-25T14:21:32.442Z,34.95
2022-08-25T14:24:06.783Z,34.94
2022-08-25T14:26:53.919Z,34.90
2022-08-25T14:29:23.962Z,34.96
2022-08-25T14:31:53.869Z,34.94
2022-08-25T14:34:34.667Z,35.02
2022-08-25T14:37:12.518Z,35.01
2022-08-25T14:39:44.782Z,34.78
2022-08-25T14:42:13.833Z,34.86
2022-08-25T14:44:42.290Z,34.89
2022-08-25T14:47:10.541Z,34.90
2022-08-25T14:49:42.686Z,34.91
2022-08-25T14:52:27.446Z,34.92
2022-08-25T14:54:57.788Z,34.96
2022-08-25T14:57:26.882Z,35.02
2022-08-25T14:59:55.324Z,34.96
2022-08-25T15:02:30.653Z,34.96
2022-08-25T15:05:06.447Z,35.02
2022-08-25T15:07:54.954Z,35.01
2022-08-25T15:10:23.807Z,35.02
2022-08-25T15:12:54.848Z,35.01
2022-08-25T15:15:26.440Z,34.99
2022-08-25T15:17:58.110Z,35.01
2022-08-25T15:20:29.160Z,35.06
2022-08-25T15:22:57.477Z,35.00
2022-08-25T15:25:26.083Z,35.09
2022-08-25T15:27:56.480Z,35.14
2022-08-25T15:30:31.017Z,35.15
2022-08-25T15:33:00.942Z,35.15
2022-08-25T15:35:29.407Z,35.15
2022-08-25T15:37:57.537Z,35.18
2022-08-25T15:40:26.779Z,35.15
2022-08-25T15:42:55.253Z,35.12
2022-08-25T15:45:24.227Z,35.18
2022-08-25T15:47:54.030Z,35.19
2022-08-25T15:50:26.031Z,35.14
2022-08-25T15:52:55.144Z,35.24
2022-08-25T15:55:23.138Z,35.24
2022-08-25T15:57:51.368Z,35.25
2022-08-25T16:00:21.536Z,35.25
2022-08-25T16:02:49.800Z,35.24
2022-08-25T16:05:22.488Z,35.26
2022-08-25T16:07:54.005Z,35.25
2022-08-25T16:10:22.386Z,35.19
2022-08-25T16:12:50.402Z,35.22
2022-08-25T16:15:19.174Z,35.22
2022-08-25T16:18:00.485Z,35.22
2022-08-25T16:20:31.974Z,35.24
2022-08-25T16:23:03.884Z,35.21
2022-08-25T16:25:33.311Z,35.00
2022-08-25T16:28:04.435Z,35.08
2022-08-25T16:30:32.600Z,35.14
2022-08-25T16:33:01.038Z,35.11
2022-08-25T16:35:29.734Z,35.10
2022-08-25T16:37:57.657Z,35.12
2022-08-25T16:40:26.568Z,35.11
2022-08-25T16:42:55.394Z,35.10
2022-08-25T16:45:25.001Z,35.06
2022-08-25T16:47:54.255Z,35.01
2022-08-25T16:50:23.895Z,35.02
2022-08-25T16:53:10.704Z,34.98
2022-08-25T16:55:40.288Z,34.92
2022-08-25T16:58:12.543Z,34.91
2022-08-25T17:00:44.564Z,34.85
2022-08-25T17:03:13.109Z,34.84
2022-08-25T17:05:43.724Z,34.80
2022-08-25T17:08:31.051Z,34.77
2022-08-25T17:11:12.926Z,34.75
2022-08-25T17:13:46.195Z,34.69
2022-08-25T17:16:15.630Z,34.68
2022-08-25T17:18:47.581Z,34.64
2022-08-25T17:21:24.549Z,34.63
2022-08-25T17:23:56.659Z,34.62
2022-08-25T17:26:27.578Z,34.59
2022-08-25T17:29:02.001Z,34.59
2022-08-25T17:31:30.899Z,34.51
2022-08-25T17:33:59.694Z,34.50
2022-08-25T17:36:29.347Z,34.46
2022-08-25T17:38:57.642Z,34.46
2022-08-25T17:41:27.009Z,34.45
2022-08-25T17:43:56.384Z,34.40
2022-08-25T17:46:24.692Z,34.38
2022-08-25T17:48:54.156Z,34.36
2022-08-25T17:51:23.757Z,34.31
2022-08-25T17:53:52.873Z,34.31
2022-08-25T17:56:24.287Z,34.27
2022-08-25T17:58:56.996Z,34.24
2022-08-25T18:01:40.556Z,34.23
2022-08-25T18:04:17.292Z,34.14
2022-08-25T18:06:48.506Z,34.12
2022-08-25T18:09:18.061Z,34.09
2022-08-25T18:11:46.754Z,34.03
2022-08-25T18:14:16.698Z,34.00
2022-08-25T18:16:45.656Z,33.96
2022-08-25T18:19:15.590Z,33.92
2022-08-25T18:21:43.767Z,33.84
2022-08-25T18:24:13.393Z,33.79
2022-08-25T18:26:46.250Z,33.68
2022-08-25T18:29:14.307Z,33.64
2022-08-25T18:31:47.376Z,33.55
2022-08-25T18:34:16.470Z,33.47
2022-08-25T18:36:47.040Z,33.34
2022-08-25T18:39:34.899Z,33.14
2022-08-25T18:42:07.180Z,33.08
2022-08-25T18:44:36.537Z,32.93
2022-08-25T18:47:05.908Z,32.78
2022-08-25T18:49:37.762Z,32.64
2022-08-25T18:52:07.523Z,32.51
2022-08-25T18:54:36.443Z,32.39
2022-08-25T18:57:08.869Z,32.27
2022-08-25T18:59:39.304Z,32.18
2022-08-25T19:02:12.814Z,32.10
2022-08-25T19:04:41.521Z,31.98
2022-08-25T19:07:12.573Z,31.94
2022-08-25T19:09:41.358Z,31.81
2022-08-25T19:12:11.578Z,31.74
2022-08-25T19:14:42.925Z,31.65
2022-08-25T19:17:12.791Z,31.59
2022-08-25T19:19:41.141Z,31.48
2022-08-25T19:22:38.131Z,31.43
2022-08-25T19:24:59.753Z,31.35
2022-08-25T19:27:28.229Z,31.27
2022-08-25T19:29:57.602Z,31.18
2022-08-25T19:32:27.923Z,31.12
2022-08-25T19:34:56.378Z,30.98
2022-08-25T19:37:29.291Z,30.92
2022-08-25T19:39:58.712Z,30.83
2022-08-25T19:42:35.058Z,30.77
2022-08-25T19:45:09.694Z,30.71
2022-08-25T19:47:37.956Z,30.61
2022-08-25T19:50:08.162Z,30.56
2022-08-25T19:52:40.016Z,30.52
2022-08-25T19:55:10.951Z,30.41
2022-08-25T19:57:42.664Z,30.30
2022-08-25T20:00:29.424Z,30.32
2022-08-25T20:02:58.548Z,30.21
2022-08-25T20:05:28.638Z,30.16
2022-08-25T20:07:58.310Z,30.07
2022-08-25T20:10:33.285Z,30.04
2022-08-25T20:13:10.897Z,29.96
2022-08-25T20:15:39.508Z,29.91
2022-08-25T20:18:07.784Z,29.86
2022-08-25T20:20:36.851Z,29.70
2022-08-25T20:23:25.230Z,29.76
2022-08-25T20:25:57.132Z,29.63
2022-08-25T20:28:26.252Z,29.55
2022-08-25T20:30:56.434Z,29.53
2022-08-25T20:33:25.999Z,29.49
2022-08-25T20:35:55.368Z,29.44
2022-08-25T20:38:24.087Z,29.36
2022-08-25T20:40:52.194Z,29.36
2022-08-25T20:43:20.747Z,29.28
2022-08-25T20:45:49.181Z,29.25
2022-08-25T20:48:17.956Z,29.17
2022-08-25T20:50:45.994Z,29.10
2022-08-25T20:53:26.738Z,28.99
2022-08-25T20:55:55.758Z,28.97
2022-08-25T20:58:23.989Z,28.92
2022-08-25T21:00:54.744Z,28.85
2022-08-25T21:03:23.800Z,28.82
2022-08-25T21:05:53.951Z,28.71
2022-08-25T21:08:23.744Z,28.69
2022-08-25T21:10:53.865Z,28.65
2022-08-25T21:13:22.760Z,28.62
2022-08-25T21:15:52.146Z,28.54
2022-08-25T21:18:20.336Z,28.53
2022-08-25T21:20:48.827Z,28.52
2022-08-25T21:23:17.733Z,28.48
2022-08-25T21:25:46.305Z,28.44
2022-08-25T21:28:16.407Z,28.34
2022-08-25T21:30:47.418Z,28.25
2022-08-25T21:33:16.266Z,28.16
2022-08-25T21:35:46.944Z,28.15
2022-08-25T21:38:15.506Z,27.98
2022-08-25T21:40:45.047Z,28.07
2022-08-25T21:43:13.172Z,28.14
2022-08-25T21:45:46.810Z,28.19
2022-08-25T21:48:15.551Z,28.10
2022-08-25T21:50:43.694Z,28.08
2022-08-25T21:53:11.933Z,28.06
2022-08-25T21:55:42.151Z,28.01
2022-08-25T21:58:12.285Z,27.92
2022-08-25T22:00:45.293Z,27.88
2022-08-25T22:03:13.382Z,27.83
2022-08-25T22:05:43.231Z,27.83
2022-08-25T22:08:14.058Z,27.55
2022-08-25T22:10:45.395Z,27.68
2022-08-25T22:13:13.954Z,27.72
2022-08-25T22:15:41.845Z,27.69
2022-08-25T22:18:10.217Z,27.72
2022-08-25T22:20:39.177Z,27.70
2022-08-25T22:23:09.327Z,27.61
2022-08-25T22:25:37.458Z,27.55
2022-08-25T22:28:06.901Z,27.53
2022-08-25T22:30:37.198Z,27.45
2022-08-25T22:33:07.397Z,27.33
2022-08-25T22:35:37.974Z,27.31
2022-08-25T22:38:12.480Z,27.29
2022-08-25T22:40:41.729Z,27.30
2022-08-25T22:43:10.931Z,27.33
2022-08-25T22:45:40.842Z,27.40
2022-08-25T22:48:10.107Z,27.43
2022-08-25T22:50:39.575Z,27.46
2022-08-25T22:53:09.239Z,27.39
2022-08-25T22:55:43.624Z,27.50
2022-08-25T22:58:12.432Z,27.44
2022-08-25T23:00:42.794Z,27.40
2022-08-25T23:03:12.074Z,27.27
2022-08-25T23:05:40.964Z,27.21
2022-08-25T23:08:08.866Z,27.15
2022-08-25T23:10:38.422Z,27.08
2022-08-25T23:13:07.487Z,27.01
2022-08-25T23:15:36.374Z,26.99
2022-08-25T23:18:06.253Z,26.95
2022-08-25T23:20:54.069Z,26.90
2022-08-25T23:23:22.299Z,26.82
2022-08-25T23:25:51.434Z,26.84
2022-08-25T23:28:20.230Z,26.83
2022-08-25T23:30:59.245Z,26.80
2022-08-25T23:33:27.573Z,26.74
2022-08-25T23:36:01.973Z,26.74
2022-08-25T23:38:29.969Z,26.81
2022-08-25T23:40:59.141Z,26.74
2022-08-25T23:43:27.554Z,26.79
2022-08-25T23:45:57.524Z,26.71
2022-08-25T23:48:26.061Z,26.67
2022-08-25T23:50:54.380Z,26.68
2022-08-25T23:53:22.645Z,26.64
2022-08-25T23:55:54.059Z,26.59
2022-08-25T23:58:22.459Z,26.55
